Time;durP1;ratioP1;P1;durP2;ratioP2;P2;SDS_P1;SDS_P2;PMS_P1;PMS_P2;Temp;Humidity;BMP_temperature;BMP_pressure;BME280_temperature;BME280_humidity;BME280_pressure;Samples;Min_cycle;Max_cycle;Signal;HPM_P1;HPM_P2
2023/10/06 00:03:48;;;;;;;;;;;17.20;53.00;;;16.15;54.95;102070.16;12263113;19;20253;-84
2023/10/06 00:07:50;;;;;;;;;;;17.20;53.00;;;16.24;55.11;102098.59;12263964;19;19915;-84
2023/10/06 00:11:52;;;;;;;;;;;17.20;53.00;;;16.13;55.00;102090.47;12264964;19;20286;-84
2023/10/06 00:15:55;;;;;;;;;;;17.20;53.00;;;16.21;54.94;102096.16;12260653;19;19929;-84
2023/10/06 00:19:59;;;;;;;;;;;17.20;53.00;;;16.27;55.02;102103.69;12259891;19;19929;-84
2023/10/06 00:24:01;;;;;;;;;;;17.20;53.00;;;16.27;54.92;102106.34;12261404;19;19930;-84
2023/10/06 00:28:14;;;;;;;;;;;17.30;53.10;;;16.25;54.72;102088.91;12260476;19;19945;-84
2023/10/06 00:32:21;;;;;;;;;;;17.20;53.10;;;16.20;55.09;102081.25;12260485;19;19919;-84
2023/10/06 00:36:29;;;;;;;;;;;17.20;53.10;;;16.07;55.02;102061.84;12257503;19;19929;-85
2023/10/06 00:40:30;;;;;;;;;;;17.20;53.10;;;16.26;55.07;102080.09;12258273;19;19915;-84
2023/10/06 00:44:32;;;;;;;;;;;17.30;53.20;;;16.27;54.98;102077.34;12261082;19;19919;-84
2023/10/06 00:48:42;;;;;;;;;;;17.30;53.10;;;16.33;55.01;102089.31;12260170;19;20340;-85
2023/10/06 00:52:43;;;;;;;;;;;17.20;53.10;;;16.31;55.16;102088.53;12260433;19;19929;-85
2023/10/06 00:56:46;;;;;;;;;;;17.30;53.10;;;16.30;55.09;102095.63;12257223;19;19934;-84
2023/10/06 01:00:48;;;;;;;;;;;17.30;53.10;;;16.28;55.20;102088.72;12255658;19;19938;-84
2023/10/06 01:04:52;;;;;;;;;;;17.30;53.10;;;16.23;55.39;102073.19;12257785;19;19982;-84
2023/10/06 01:09:06;;;;;;;;;;;17.30;53.10;;;16.29;55.26;102082.53;12254564;19;20333;-83
2023/10/06 01:13:14;;;;;;;;;;;17.20;53.10;;;16.27;55.25;102079.13;12254300;19;19923;-84
2023/10/06 01:17:16;;;;;;;;;;;17.30;53.10;;;16.30;55.28;102084.22;12253845;19;19990;-84
2023/10/06 01:21:28;;;;;;;;;;;17.30;53.10;;;16.26;55.21;102083.56;12255880;19;19923;-84
2023/10/06 01:25:34;;;;;;;;;;;17.30;53.00;;;16.10;55.26;102051.97;12256372;19;20317;-84
2023/10/06 01:29:36;;;;;;;;;;;17.20;53.10;;;16.11;55.07;102044.91;12253393;19;19922;-84
2023/10/06 01:33:38;;;;;;;;;;;17.20;53.10;;;16.27;55.31;102074.69;12255456;19;19915;-84
2023/10/06 01:37:44;;;;;;;;;;;17.20;53.40;;;16.26;55.05;102074.81;12255225;19;19943;-84
2023/10/06 01:41:46;;;;;;;;;;;17.20;53.20;;;16.22;55.28;102060.94;12256759;19;19922;-84
2023/10/06 01:45:51;;;;;;;;;;;17.20;53.20;;;16.22;55.11;102066.22;12255141;19;19923;-84
2023/10/06 01:49:57;;;;;;;;;;;17.20;53.20;;;16.24;55.22;102079.31;12252544;19;20016;-84
2023/10/06 01:53:59;;;;;;;;;;;17.20;53.20;;;16.05;55.17;102056.63;12256186;19;19919;-84
2023/10/06 01:58:03;;;;;;;;;;;17.20;53.30;;;16.03;55.26;102050.59;12254160;19;19950;-84
2023/10/06 02:02:12;;;;;;;;;;;17.20;53.30;;;16.21;55.21;102085.59;12255638;19;19986;-84
2023/10/06 02:06:16;;;;;;;;;;;17.20;53.30;;;16.23;55.39;102081.09;12254025;19;20417;-84
2023/10/06 02:10:18;;;;;;;;;;;17.10;53.30;;;16.14;55.46;102074.53;12252028;19;19918;-84
2023/10/06 02:14:19;;;;;;;;;;;17.10;53.30;;;16.24;55.14;102088.06;12254409;19;19923;-84
2023/10/06 02:18:21;;;;;;;;;;;17.20;53.40;;;16.24;55.47;102090.69;12258181;19;19911;-84
2023/10/06 02:22:22;;;;;;;;;;;17.20;53.40;;;16.24;55.36;102088.06;12278870;19;19919;-84
2023/10/06 02:26:24;;;;;;;;;;;17.20;53.40;;;16.08;55.37;102056.47;12278059;19;19919;-84
2023/10/06 02:30:39;;;;;;;;;;;17.20;53.50;;;16.20;55.34;102069.88;12278446;19;19911;-84
2023/10/06 02:34:41;;;;;;;;;;;17.20;53.50;;;16.28;55.47;102071.16;12278275;19;19914;-84
2023/10/06 02:38:47;;;;;;;;;;;17.20;53.40;;;16.31;55.57;102064.81;12277253;19;20269;-84
2023/10/06 02:42:53;;;;;;;;;;;17.30;53.50;;;16.34;55.28;102069.94;12279939;19;19927;-84
2023/10/06 02:46:55;;;;;;;;;;;17.30;53.50;;;16.30;55.56;102058.69;12279763;19;19927;-85
2023/10/06 02:50:57;;;;;;;;;;;17.30;53.50;;;16.31;55.50;102067.47;12275485;19;19922;-84
2023/10/06 02:55:07;;;;;;;;;;;17.30;53.50;;;16.27;55.54;102053.63;12278413;19;19966;-84
2023/10/06 02:59:26;;;;;;;;;;;17.40;53.50;;;16.37;55.43;102075.03;12275614;19;20352;-84
2023/10/06 03:03:27;;;;;;;;;;;17.30;53.50;;;16.37;55.50;102081.16;12278381;19;19915;-84
2023/10/06 03:07:32;;;;;;;;;;;17.40;53.50;;;16.35;55.65;102069.00;12277234;19;20302;-84
2023/10/06 03:11:34;;;;;;;;;;;17.40;53.50;;;16.37;55.56;102067.97;12277914;19;20304;-85
2023/10/06 03:15:42;;;;;;;;;;;17.40;53.50;;;16.43;55.63;102079.94;12276384;19;19926;-84
2023/10/06 03:19:44;;;;;;;;;;;17.40;53.60;;;16.44;55.69;102070.25;12277106;19;19919;-84
2023/10/06 03:23:56;;;;;;;;;;;17.40;53.60;;;16.44;55.56;102071.06;12277603;19;19919;-84
2023/10/06 03:27:58;;;;;;;;;;;17.40;53.60;;;16.18;55.69;102019.91;12276984;19;20017;-84
2023/10/06 03:32:01;;;;;;;;;;;17.40;53.60;;;16.44;55.58;102057.06;12268264;19;19939;-84
2023/10/06 03:36:04;;;;;;;;;;;17.50;53.60;;;16.24;55.63;102018.69;12260095;19;19949;-84
2023/10/06 03:40:21;;;;;;;;;;;17.50;53.60;;;16.41;55.52;102031.72;12261476;19;20260;-85
2023/10/06 03:44:26;;;;;;;;;;;17.50;53.70;;;16.48;55.72;102045.41;12264772;19;19949;-84
2023/10/06 03:48:29;;;;;;;;;;;17.50;53.70;;;16.46;55.61;102036.72;12263077;19;19914;-84
2023/10/06 03:52:34;;;;;;;;;;;17.50;53.70;;;16.52;55.72;102039.84;12264632;19;20360;-84
2023/10/06 03:56:36;;;;;;;;;;;17.50;53.70;;;16.51;55.77;102053.13;12263513;19;20370;-84
2023/10/06 04:00:38;;;;;;;;;;;17.60;53.70;;;16.46;55.84;102037.56;12263049;19;19926;-84
2023/10/06 04:04:42;;;;;;;;;;;17.60;53.70;;;16.56;55.68;102058.97;12263405;19;19919;-84
2023/10/06 04:08:45;;;;;;;;;;;17.60;53.80;;;16.37;56.01;102028.41;12263281;19;19925;-84
2023/10/06 04:12:46;;;;;;;;;;;17.60;53.70;;;16.62;55.84;102066.53;12264161;19;19919;-84
2023/10/06 04:16:53;;;;;;;;;;;17.60;53.70;;;16.62;56.03;102063.88;12259874;19;19922;-85
2023/10/06 04:20:54;;;;;;;;;;;17.60;53.70;;;16.61;56.04;102051.66;12260257;19;19915;-84
2023/10/06 04:24:59;;;;;;;;;;;17.70;53.80;;;16.57;56.12;102043.06;12259737;19;20152;-84
2023/10/06 04:29:04;;;;;;;;;;;17.70;53.80;;;16.66;55.93;102049.59;12259976;19;19922;-84
2023/10/06 04:33:05;;;;;;;;;;;17.70;53.80;;;16.54;55.81;102030.06;12259445;19;19925;-84
2023/10/06 04:37:07;;;;;;;;;;;17.70;53.80;;;16.66;55.97;102044.31;12257057;19;19930;-84
2023/10/06 04:41:09;;;;;;;;;;;17.70;53.80;;;16.66;55.98;102038.16;12257170;19;19927;-84
2023/10/06 04:45:12;;;;;;;;;;;17.70;53.80;;;16.58;55.97;102034.22;12258033;19;19934;-84
2023/10/06 04:49:14;;;;;;;;;;;17.70;53.90;;;16.72;55.94;102056.28;12249753;19;19995;-84
2023/10/06 04:53:16;;;;;;;;;;;17.70;53.90;;;16.63;56.02;102039.19;12260453;19;19914;-84
2023/10/06 04:57:18;;;;;;;;;;;17.70;53.90;;;16.72;56.12;102053.66;12257987;19;19919;-84
2023/10/06 05:01:20;;;;;;;;;;;17.70;53.90;;;16.58;56.02;102025.47;12258565;19;19923;-84
2023/10/06 05:05:22;;;;;;;;;;;17.70;54.00;;;16.75;56.03;102048.19;12258675;19;19922;-84
2023/10/06 05:09:24;;;;;;;;;;;17.70;54.00;;;16.71;55.73;102036.94;12255843;19;19935;-84
2023/10/06 05:13:26;;;;;;;;;;;17.70;54.70;;;16.66;56.04;102028.50;12255949;19;19919;-84
2023/10/06 05:17:28;;;;;;;;;;;17.70;54.30;;;16.59;55.98;102006.06;12246412;19;20016;-84
2023/10/06 05:21:30;;;;;;;;;;;17.70;54.20;;;16.74;55.87;102038.56;12254106;19;19961;-84
2023/10/06 05:25:38;;;;;;;;;;;17.70;54.20;;;16.71;56.20;102036.94;12252048;19;19922;-85
2023/10/06 05:29:39;;;;;;;;;;;17.70;54.20;;;16.71;55.95;102047.50;12251197;19;19925;-85
2023/10/06 05:33:41;;;;;;;;;;;17.70;54.20;;;16.49;55.97;102010.16;12252228;19;19915;-84
2023/10/06 05:37:43;;;;;;;;;;;17.70;54.30;;;16.56;56.06;102020.25;12251944;19;19919;-84
2023/10/06 05:41:44;;;;;;;;;;;17.70;54.20;;;16.47;55.96;102001.50;12248849;19;19978;-84
2023/10/06 05:45:52;;;;;;;;;;;17.70;54.40;;;16.71;56.10;102041.38;12251095;19;20334;-85
2023/10/06 05:49:53;;;;;;;;;;;17.70;54.30;;;16.74;55.91;102042.06;12251233;19;19953;-85
2023/10/06 05:53:56;;;;;;;;;;;17.70;54.30;;;16.78;56.01;102056.78;12250404;19;20659;-84
2023/10/06 05:58:00;;;;;;;;;;;17.70;54.60;;;16.77;55.98;102063.00;12251085;19;19915;-85
2023/10/06 06:02:04;;;;;;;;;;;17.70;54.40;;;16.55;55.92;102018.59;12248968;19;19915;-84
2023/10/06 06:06:09;;;;;;;;;;;17.70;54.40;;;16.72;56.06;102043.09;12250721;19;19941;-84
2023/10/06 06:10:15;;;;;;;;;;;17.70;54.40;;;16.79;56.23;102057.63;12248952;19;20273;-84
2023/10/06 06:14:20;;;;;;;;;;;17.70;54.40;;;16.84;56.30;102058.22;12249231;19;19986;-84
2023/10/06 06:18:25;;;;;;;;;;;17.70;54.40;;;16.77;56.19;102041.91;12248629;19;19980;-85
2023/10/06 06:22:29;;;;;;;;;;;17.80;55.10;;;16.83;56.26;102050.41;12256849;19;19911;-85
2023/10/06 06:26:31;;;;;;;;;;;17.80;54.60;;;16.79;56.09;102050.56;12252341;19;20260;-84
2023/10/06 06:30:36;;;;;;;;;;;17.80;54.60;;;16.55;56.25;102005.41;12251144;19;19926;-84
2023/10/06 06:34:38;;;;;;;;;;;17.80;54.50;;;16.87;56.17;102071.22;12251714;19;19931;-85
2023/10/06 06:38:40;;;;;;;;;;;17.80;54.50;;;16.88;56.16;102064.16;12247458;19;19923;-84
2023/10/06 06:42:41;;;;;;;;;;;17.80;54.80;;;16.88;56.31;102061.53;12253626;19;19940;-85
2023/10/06 06:46:43;;;;;;;;;;;17.80;54.70;;;16.87;56.45;102043.97;12256822;19;19919;-84
2023/10/06 06:50:45;;;;;;;;;;;17.90;54.70;;;16.96;56.37;102054.00;12242137;19;19919;-85
2023/10/06 06:54:47;;;;;;;;;;;17.90;55.30;;;16.88;56.22;102043.06;12247190;19;19922;-85
2023/10/06 06:58:49;;;;;;;;;;;17.90;55.00;;;16.99;56.48;102057.28;12244519;19;20344;-85
2023/10/06 07:02:52;;;;;;;;;;;17.90;55.10;;;16.83;56.27;102016.09;12249551;19;20325;-84
2023/10/06 07:06:54;;;;;;;;;;;17.90;55.20;;;17.06;56.31;102047.19;12254025;19;19931;-84
2023/10/06 07:10:56;;;;;;;;;;;18.00;54.90;;;17.09;56.50;102052.28;12258033;19;19934;-84
2023/10/06 07:14:57;;;;;;;;;;;18.00;55.00;;;17.11;56.56;102050.41;12260442;19;20362;-84
2023/10/06 07:18:59;;;;;;;;;;;18.10;55.50;;;17.05;56.51;102040.22;12263413;19;19918;-86
2023/10/06 07:23:00;;;;;;;;;;;18.10;55.10;;;17.18;56.65;102057.00;12252201;19;19933;-85
2023/10/06 07:27:02;;;;;;;;;;;18.10;55.40;;;16.96;56.57;101999.41;12253298;19;19919;-85
2023/10/06 07:31:17;;;;;;;;;;;18.20;55.20;;;17.17;56.54;102031.53;12254325;19;19919;-84
2023/10/06 07:35:25;;;;;;;;;;;18.20;55.20;;;17.15;56.66;102022.88;12252256;19;20255;-84
2023/10/06 07:39:27;;;;;;;;;;;18.30;55.10;;;17.18;56.61;102022.69;12255240;19;19930;-85
2023/10/06 07:43:28;;;;;;;;;;;18.30;55.20;;;17.33;56.67;102035.88;12265438;19;19911;-85
2023/10/06 07:47:31;;;;;;;;;;;18.30;54.90;;;17.26;56.62;102011.66;12265540;19;19934;-84
2023/10/06 07:51:33;;;;;;;;;;;18.40;55.00;;;17.43;56.70;102023.78;12260818;19;19978;-85
2023/10/06 07:55:36;;;;;;;;;;;18.40;55.00;;;17.39;56.69;102006.41;12256742;19;19923;-84
2023/10/06 07:59:38;;;;;;;;;;;18.50;55.00;;;17.52;56.57;102019.69;12243848;19;19923;-85
2023/10/06 08:03:41;;;;;;;;;;;18.50;55.20;;;17.46;56.85;102010.38;12258384;19;19929;-85
2023/10/06 08:07:43;;;;;;;;;;;18.50;55.10;;;17.49;56.62;102007.53;12255674;19;19919;-84
2023/10/06 08:11:45;;;;;;;;;;;18.50;55.00;;;17.62;56.83;102023.47;12262024;19;19914;-84
2023/10/06 08:15:47;;;;;;;;;;;18.50;55.00;;;17.65;56.83;102013.53;12257715;19;19914;-85
2023/10/06 08:19:48;;;;;;;;;;;18.60;54.90;;;17.67;56.86;102002.88;12256175;19;19915;-84
2023/10/06 08:23:50;;;;;;;;;;;18.70;55.40;;;17.75;56.65;101997.94;12258519;19;20275;-86
2023/10/06 08:27:52;;;;;;;;;;;18.70;55.50;;;17.69;56.73;101974.56;12251736;19;19936;-85
2023/10/06 08:31:54;;;;;;;;;;;18.80;55.30;;;17.87;56.60;101983.09;12246249;19;19938;-84
2023/10/06 08:35:57;;;;;;;;;;;18.80;55.20;;;17.81;56.87;101965.84;12245371;19;19930;-85
2023/10/06 08:39:59;;;;;;;;;;;18.90;55.30;;;17.80;56.66;101958.88;12243113;19;19955;-85
2023/10/06 08:44:02;;;;;;;;;;;18.90;55.30;;;18.00;56.79;101976.06;12244826;19;19922;-85
2023/10/06 08:48:09;;;;;;;;;;;19.00;55.40;;;17.99;56.58;101955.88;12245984;19;19943;-85
2023/10/06 08:52:14;;;;;;;;;;;19.00;55.20;;;17.82;56.79;101917.38;12247152;19;19922;-84
2023/10/06 08:56:17;;;;;;;;;;;19.10;55.40;;;18.16;56.66;101956.53;12243568;19;19922;-85
2023/10/06 09:00:26;;;;;;;;;;;19.10;55.30;;;18.24;56.98;101959.50;12242067;19;19951;-84
2023/10/06 09:04:35;;;;;;;;;;;19.20;55.20;;;18.31;56.92;101955.50;12235219;19;20396;-85
2023/10/06 09:08:40;;;;;;;;;;;19.30;55.50;;;18.32;56.71;101950.09;12244738;19;19927;-85
2023/10/06 09:12:42;;;;;;;;;;;19.40;55.20;;;18.45;57.03;101958.03;12243053;19;20354;-85
2023/10/06 09:16:50;;;;;;;;;;;19.50;55.40;;;18.53;56.92;101961.00;12242929;19;19922;-85
2023/10/06 09:20:51;;;;;;;;;;;19.60;55.40;;;18.50;56.69;101950.63;12242459;19;20334;-85
2023/10/06 09:25:04;;;;;;;;;;;19.60;55.10;;;18.65;56.96;101963.75;12242918;19;19919;-85
2023/10/06 09:29:09;;;;;;;;;;;19.70;55.40;;;18.64;56.89;101960.25;12238597;19;19965;-86
2023/10/06 09:33:11;;;;;;;;;;;19.70;55.10;;;18.54;56.84;101917.72;12241363;19;20407;-85
2023/10/06 09:37:20;;;;;;;;;;;19.80;55.00;;;18.73;57.12;101942.88;12238694;19;19925;-85
2023/10/06 09:41:26;;;;;;;;;;;19.80;54.80;;;18.85;56.87;101946.50;12242063;19;19918;-84
2023/10/06 09:45:30;;;;;;;;;;;19.90;54.90;;;18.87;56.93;101926.91;12242749;19;19922;-85
2023/10/06 09:49:33;;;;;;;;;;;20.00;54.70;;;18.84;56.83;101911.25;12238583;19;19922;-85
2023/10/06 09:53:38;;;;;;;;;;;20.00;54.80;;;19.01;57.12;101921.50;12239780;19;19927;-85
2023/10/06 09:57:42;;;;;;;;;;;20.10;54.80;;;19.15;57.18;101925.78;12237855;19;19927;-85
2023/10/06 10:01:47;;;;;;;;;;;20.20;54.90;;;19.12;56.89;101896.00;12240132;19;19915;-85
2023/10/06 10:05:48;;;;;;;;;;;20.30;54.70;;;19.30;57.04;101899.97;12248589;19;19939;-85
2023/10/06 10:09:50;;;;;;;;;;;20.40;54.70;;;19.48;56.86;101899.59;12239928;19;19911;-85
2023/10/06 10:14:00;;;;;;;;;;;20.50;54.50;;;19.60;56.89;101891.56;12243671;19;19918;-85
2023/10/06 10:18:10;;;;;;;;;;;20.60;54.30;;;19.64;56.96;101876.28;12254460;19;20317;-86
2023/10/06 10:22:13;;;;;;;;;;;20.70;54.50;;;19.75;56.81;101881.66;12245199;19;19926;-86
2023/10/06 10:26:23;;;;;;;;;;;20.80;53.50;;;19.71;56.70;101858.13;12254117;19;19922;-86
2023/10/06 10:30:53;;;;;;;;;;;20.80;53.70;;;19.84;56.99;101870.34;12256936;19;19915;-86
2023/10/06 10:35:14;;;;;;;;;;;20.90;53.60;;;19.87;56.91;101866.59;12255170;19;19958;-86
2023/10/06 10:39:18;;;;;;;;;;;20.90;53.60;;;19.81;56.52;101856.47;12259470;19;19915;-88
2023/10/06 10:43:20;;;;;;;;;;;20.90;53.50;;;19.83;56.94;101857.22;12265415;19;19915;-86
2023/10/06 10:47:23;;;;;;;;;;;21.00;53.60;;;19.83;56.78;101850.09;12278521;19;19919;-85
2023/10/06 10:51:25;;;;;;;;;;;21.00;53.70;;;19.97;56.44;101857.00;12293402;19;19922;-86
2023/10/06 10:55:27;;;;;;;;;;;21.00;53.60;;;20.01;56.78;101857.59;12279869;19;19981;-86
2023/10/06 11:00:11;;;;;;;;;;;21.10;53.80;;;20.05;56.36;101848.44;12274062;19;20332;-87
2023/10/06 11:04:49;;;;;;;;;;;21.10;53.50;;;20.09;56.52;101849.88;12276902;19;19970;-86
2023/10/06 11:08:46;;;;;;;;;;;21.10;53.20;;;20.11;56.65;101853.28;12269668;19;19926;-86
2023/10/06 11:12:48;;;;;;;;;;;21.20;53.20;;;20.13;56.42;101845.22;12279579;19;19922;-86
2023/10/06 11:16:49;;;;;;;;;;;21.20;53.30;;;20.01;56.36;101829.28;12271596;19;20280;-84
2023/10/06 11:20:54;;;;;;;;;;;21.20;53.30;;;20.15;56.47;101838.81;12261453;19;19947;-85
2023/10/06 11:25:02;;;;;;;;;;;21.20;53.20;;;20.21;56.56;101830.38;12257376;19;19919;-86
2023/10/06 11:29:04;;;;;;;;;;;21.20;53.20;;;20.19;56.55;101819.03;12262707;19;19926;-84
2023/10/06 11:33:11;;;;;;;;;;;21.20;52.80;;;20.22;56.46;101823.25;12261642;19;19903;-85
2023/10/06 11:37:13;;;;;;;;;;;21.30;53.10;;;20.31;56.38;101819.91;12261960;19;19929;-84
2023/10/06 11:41:22;;;;;;;;;;;21.40;53.20;;;20.43;56.61;101818.06;12261489;19;20360;-85
2023/10/06 11:45:25;;;;;;;;;;;21.50;53.00;;;20.49;56.34;101809.59;12254947;19;19918;-84
2023/10/06 11:49:26;;;;;;;;;;;21.50;52.60;;;20.34;56.32;101780.69;12258118;19;19951;-84
2023/10/06 11:53:28;;;;;;;;;;;21.50;52.90;;;20.51;56.08;101781.97;12259690;19;19915;-84
2023/10/06 11:57:45;;;;;;;;;;;21.60;52.90;;;20.63;56.35;101782.84;12261697;19;19923;-85
2023/10/06 12:01:46;;;;;;;;;;;21.60;52.90;;;20.61;56.43;101776.81;12256369;19;19923;-84
2023/10/06 12:05:57;;;;;;;;;;;21.70;52.70;;;20.69;56.22;101771.72;12256558;19;19926;-85
2023/10/06 12:10:08;;;;;;;;;;;21.70;51.60;;;20.71;55.95;101758.31;12257284;19;19931;-84
2023/10/06 12:14:10;;;;;;;;;;;21.80;52.30;;;20.73;56.14;101727.19;12256380;19;19919;-84
2023/10/06 12:18:15;;;;;;;;;;;21.80;52.40;;;20.82;56.13;101717.63;12253619;19;19919;-83
2023/10/06 12:22:17;;;;;;;;;;;21.80;51.70;;;20.90;55.71;101704.53;12264380;19;19922;-84
2023/10/06 12:26:18;;;;;;;;;;;21.90;51.40;;;20.91;55.94;101690.31;12261300;19;19911;-84
2023/10/06 12:30:21;;;;;;;;;;;21.90;50.80;;;20.94;55.85;101690.88;12252597;19;19922;-85
2023/10/06 12:34:23;;;;;;;;;;;21.90;50.30;;;20.98;55.74;101687.03;12258101;19;19929;-84
2023/10/06 12:38:26;;;;;;;;;;;22.00;51.10;;;20.94;55.71;101684.75;12255978;19;20381;-85
2023/10/06 12:42:31;;;;;;;;;;;22.00;51.80;;;21.03;55.46;101694.56;12251300;19;20356;-84
2023/10/06 12:46:33;;;;;;;;;;;22.00;52.00;;;21.08;55.55;101704.81;12256806;19;19936;-83
2023/10/06 12:50:42;;;;;;;;;;;22.00;51.50;;;21.05;55.47;101690.00;12257134;19;19919;-85
2023/10/06 12:54:44;;;;;;;;;;;22.10;51.80;;;21.05;55.37;101673.22;12252951;19;19937;-84
2023/10/06 12:58:46;;;;;;;;;;;22.10;51.20;;;20.99;55.66;101670.09;12256441;19;19922;-86
2023/10/06 13:02:48;;;;;;;;;;;22.00;51.10;;;21.04;55.24;101672.38;12266421;19;20376;-83
2023/10/06 13:06:50;;;;;;;;;;;22.00;51.20;;;20.99;55.66;101678.06;12271127;19;19923;-86
2023/10/06 13:10:53;;;;;;;;;;;22.00;51.00;;;20.93;55.67;101648.56;12264348;19;19907;-85
2023/10/06 13:14:55;;;;;;;;;;;22.00;50.90;;;20.89;55.65;101644.47;12264266;19;19914;-84
2023/10/06 13:18:57;;;;;;;;;;;22.00;50.30;;;20.98;55.50;101651.63;12259495;19;19924;-85
2023/10/06 13:22:58;;;;;;;;;;;21.90;50.30;;;20.92;55.14;101647.69;12253299;19;19926;-85
2023/10/06 13:27:00;;;;;;;;;;;21.90;50.90;;;20.85;55.05;101632.44;12253031;19;19930;-86
2023/10/06 13:31:04;;;;;;;;;;;21.90;51.30;;;20.77;55.34;101607.34;12254700;19;19939;-84
2023/10/06 13:35:11;;;;;;;;;;;21.90;51.20;;;20.91;55.33;101626.59;12257379;19;19919;-84
2023/10/06 13:39:15;;;;;;;;;;;21.90;51.30;;;20.95;55.03;101630.66;12257123;19;19935;-85
2023/10/06 13:43:17;;;;;;;;;;;21.90;51.40;;;20.93;55.09;101624.66;12259546;19;19919;-84
2023/10/06 13:47:19;;;;;;;;;;;21.90;51.30;;;20.94;55.05;101623.66;12258636;19;19927;-85
2023/10/06 13:51:21;;;;;;;;;;;21.90;51.50;;;20.90;55.00;101623.09;12261499;19;19923;-86
2023/10/06 13:55:26;;;;;;;;;;;21.90;51.70;;;20.91;55.00;101623.94;12259925;19;19935;-85
2023/10/06 13:59:29;;;;;;;;;;;21.90;51.80;;;20.91;55.05;101630.06;12258230;19;20456;-84
2023/10/06 14:03:31;;;;;;;;;;;21.90;51.70;;;20.94;54.93;101628.97;12259393;19;19923;-84
2023/10/06 14:07:33;;;;;;;;;;;21.90;51.80;;;20.89;55.09;101615.25;12258641;19;19923;-86
2023/10/06 14:11:35;;;;;;;;;;;21.90;51.80;;;20.91;54.79;101619.47;12260246;19;19915;-85
2023/10/06 14:15:49;;;;;;;;;;;21.90;52.00;;;20.88;54.99;101618.88;12254724;19;19982;-84
2023/10/06 14:19:50;;;;;;;;;;;21.80;51.50;;;20.82;55.11;101598.13;12252336;19;19915;-84
2023/10/06 14:23:54;;;;;;;;;;;21.80;51.80;;;20.83;55.18;101582.09;12257288;19;19943;-85
2023/10/06 14:27:56;;;;;;;;;;;21.80;51.50;;;20.75;55.10;101582.75;12257096;19;19942;-85
2023/10/06 14:32:18;;;;;;;;;;;21.70;51.80;;;20.76;54.77;101576.44;12257019;19;20281;-84
2023/10/06 14:49:05;;;;;;;;;;;21.60;51.80;;;20.72;54.79;101545.00;12253005;19;19929;-85
2023/10/06 14:53:06;;;;;;;;;;;21.60;52.00;;;20.73;55.07;101549.34;12255304;19;19990;-85
2023/10/06 14:57:08;;;;;;;;;;;21.60;51.90;;;20.70;54.89;101534.50;12251718;19;19923;-85
2023/10/06 15:01:12;;;;;;;;;;;21.60;51.90;;;20.73;54.89;101530.75;12252793;19;19922;-84
2023/10/06 15:05:15;;;;;;;;;;;21.60;52.00;;;20.71;54.94;101530.03;12253226;19;20376;-84
2023/10/06 15:09:19;;;;;;;;;;;21.60;52.00;;;20.75;55.03;101515.53;12252493;19;19939;-84
2023/10/06 15:13:22;;;;;;;;;;;21.60;52.00;;;20.78;54.92;101529.38;12252179;19;19922;-85
2023/10/06 15:17:23;;;;;;;;;;;21.60;51.80;;;20.67;54.49;101502.91;12250717;19;19948;-85
2023/10/06 15:21:25;;;;;;;;;;;21.60;51.90;;;20.77;54.62;101516.25;12253199;19;19915;-85
2023/10/06 15:25:27;;;;;;;;;;;21.60;52.00;;;20.68;54.52;101501.94;12244190;19;19922;-86
2023/10/06 15:29:29;;;;;;;;;;;21.60;52.00;;;20.67;54.61;101500.25;12262311;19;19923;-84
2023/10/06 15:33:32;;;;;;;;;;;21.60;52.00;;;20.72;54.63;101503.38;12264633;19;19922;-86
2023/10/06 15:37:34;;;;;;;;;;;21.60;52.00;;;20.49;54.56;101467.31;12260023;19;19919;-85
2023/10/06 15:41:39;;;;;;;;;;;21.50;51.80;;;20.66;54.78;101501.25;12258634;19;19975;-85
2023/10/06 15:45:40;;;;;;;;;;;21.50;51.70;;;20.64;54.90;101494.38;12262497;19;20322;-85
2023/10/06 15:49:43;;;;;;;;;;;21.50;51.60;;;20.62;54.58;101498.97;12259246;19;19911;-85
2023/10/06 15:53:45;;;;;;;;;;;21.50;51.80;;;20.51;54.61;101483.94;12262305;19;19911;-84
2023/10/06 15:57:47;;;;;;;;;;;21.50;51.80;;;20.49;54.75;101464.66;12257548;19;19934;-85
2023/10/06 16:01:49;;;;;;;;;;;21.40;51.90;;;20.46;54.53;101436.56;12263275;19;19923;-85
2023/10/06 16:05:51;;;;;;;;;;;21.40;51.70;;;20.25;54.83;101404.78;12263271;19;19927;-86
2023/10/06 16:09:52;;;;;;;;;;;21.30;51.90;;;20.48;54.44;101429.31;12262406;19;19923;-85
2023/10/06 16:13:54;;;;;;;;;;;21.40;51.80;;;20.47;54.27;101424.16;12260990;19;20333;-84
2023/10/06 16:17:55;;;;;;;;;;;21.30;51.30;;;20.46;54.60;101438.38;12260878;19;19948;-84
2023/10/06 16:21:57;;;;;;;;;;;21.30;51.60;;;20.36;54.46;101424.22;12262769;19;19917;-84
2023/10/06 16:25:58;;;;;;;;;;;21.30;51.80;;;20.38;54.61;101439.03;12260595;19;19986;-85
2023/10/06 16:30:00;;;;;;;;;;;21.20;51.60;;;20.20;54.53;101412.28;12259022;19;19938;-86
2023/10/06 16:34:02;;;;;;;;;;;21.20;51.20;;;20.29;54.71;101438.00;12253269;19;19943;-86
2023/10/06 16:38:03;;;;;;;;;;;21.20;51.80;;;20.33;54.43;101441.22;12262672;19;19935;-85
2023/10/06 16:42:05;;;;;;;;;;;21.20;51.70;;;20.34;54.59;101445.59;12259787;19;19911;-85
2023/10/06 16:46:07;;;;;;;;;;;21.10;51.80;;;20.09;54.48;101399.94;12249685;19;19915;-83
2023/10/06 16:50:08;;;;;;;;;;;21.20;51.80;;;20.31;54.22;101425.47;12252659;19;19919;-85
2023/10/06 16:54:10;;;;;;;;;;;21.20;51.90;;;20.33;54.43;101422.66;12256483;19;19919;-85
2023/10/06 16:58:12;;;;;;;;;;;21.20;52.00;;;20.25;54.45;101401.25;12256963;19;19928;-84
2023/10/06 17:02:13;;;;;;;;;;;21.10;51.90;;;20.33;54.52;101425.31;12261412;19;19970;-84
2023/10/06 17:06:17;;;;;;;;;;;21.10;51.80;;;20.29;54.71;101418.59;12258012;19;19946;-85
2023/10/06 17:10:19;;;;;;;;;;;21.10;51.90;;;20.26;54.31;101411.75;12255276;19;19982;-85
2023/10/06 17:14:21;;;;;;;;;;;21.10;51.80;;;20.29;54.63;101400.88;12255531;19;19937;-85
2023/10/06 17:18:22;;;;;;;;;;;21.10;51.70;;;20.27;54.49;101401.97;12257055;19;19923;-85
2023/10/06 17:22:24;;;;;;;;;;;21.10;51.80;;;20.25;54.39;101388.88;12257059;19;19910;-84
2023/10/06 17:26:25;;;;;;;;;;;21.10;51.80;;;20.22;54.42;101391.75;12256727;19;19922;-85
2023/10/06 17:30:27;;;;;;;;;;;21.10;51.80;;;20.04;54.12;101357.06;12255592;19;20329;-86
2023/10/06 17:34:28;;;;;;;;;;;21.10;51.80;;;20.26;54.56;101384.38;12257256;19;19942;-85
2023/10/06 17:38:33;;;;;;;;;;;21.10;51.80;;;20.19;54.16;101378.75;12255597;19;19915;-85
2023/10/06 17:42:34;;;;;;;;;;;21.10;51.80;;;20.27;54.59;101380.75;12258246;19;19906;-86
2023/10/06 17:46:39;;;;;;;;;;;21.10;51.70;;;20.23;54.10;101374.88;12256204;19;19953;-85
2023/10/06 17:50:47;;;;;;;;;;;21.10;51.50;;;20.04;54.12;101337.66;12254047;19;20322;-85
2023/10/06 17:54:49;;;;;;;;;;;21.10;51.60;;;20.24;54.58;101365.94;12256052;19;19955;-85
2023/10/06 17:58:52;;;;;;;;;;;21.10;51.70;;;20.25;54.25;101365.00;12250622;19;19943;-85
2023/10/06 18:02:54;;;;;;;;;;;21.10;51.40;;;20.19;54.34;101362.00;12249915;19;19929;-85
2023/10/06 18:06:56;;;;;;;;;;;21.10;51.50;;;20.20;54.02;101353.94;12253496;19;19911;-85
2023/10/06 18:10:58;;;;;;;;;;;21.10;51.10;;;20.15;54.06;101340.22;12247293;19;19919;-85
2023/10/06 18:14:59;;;;;;;;;;;21.10;51.20;;;20.24;54.42;101355.34;12253577;19;20495;-86
2023/10/06 18:19:01;;;;;;;;;;;21.10;51.40;;;20.19;54.32;101349.56;12251191;19;20321;-85
2023/10/06 18:23:03;;;;;;;;;;;21.10;51.20;;;20.24;54.30;101343.88;12252386;19;19922;-86
2023/10/06 18:27:04;;;;;;;;;;;21.10;51.00;;;20.24;54.17;101346.53;12255445;19;19974;-84
2023/10/06 18:31:06;;;;;;;;;;;21.10;51.10;;;20.26;54.30;101344.59;12254676;19;19927;-85